sensor_id;sensor_type;location;lat;lon;timestamp;P1;durP1;ratioP1;P2;durP2;ratioP2
2055;SDS011;1033;52.560;13.374;2023-01-09T00:01:40;13.02;;;8.43;;
2055;SDS011;1033;52.560;13.374;2023-01-09T00:04:11;9.75;;;8.65;;
2055;SDS011;1033;52.560;13.374;2023-01-09T00:06:40;14.48;;;10.18;;
2055;SDS011;1033;52.560;13.374;2023-01-09T00:09:11;17.73;;;11.85;;
2055;SDS011;1033;52.560;13.374;2023-01-09T00:11:42;13.98;;;9.20;;
2055;SDS011;1033;52.560;13.374;2023-01-09T00:14:12;13.63;;;9.98;;
2055;SDS011;1033;52.560;13.374;2023-01-09T00:16:41;13.10;;;9.10;;
2055;SDS011;1033;52.560;13.374;2023-01-09T00:19:10;12.65;;;9.38;;
2055;SDS011;1033;52.560;13.374;2023-01-09T00:21:39;12.20;;;7.55;;
2055;SDS011;1033;52.560;13.374;2023-01-09T00:24:08;12.27;;;9.05;;
2055;SDS011;1033;52.560;13.374;2023-01-09T00:26:37;12.70;;;8.77;;
2055;SDS011;1033;52.560;13.374;2023-01-09T00:29:09;13.50;;;9.55;;
2055;SDS011;1033;52.560;13.374;2023-01-09T00:31:38;13.65;;;8.50;;
2055;SDS011;1033;52.560;13.374;2023-01-09T00:34:07;12.70;;;10.55;;
2055;SDS011;1033;52.560;13.374;2023-01-09T00:36:37;12.05;;;10.20;;
2055;SDS011;1033;52.560;13.374;2023-01-09T00:39:06;12.07;;;9.38;;
2055;SDS011;1033;52.560;13.374;2023-01-09T00:41:36;12.50;;;9.10;;
2055;SDS011;1033;52.560;13.374;2023-01-09T00:44:08;13.90;;;9.68;;
2055;SDS011;1033;52.560;13.374;2023-01-09T00:46:42;14.73;;;9.75;;
2055;SDS011;1033;52.560;13.374;2023-01-09T00:49:15;13.20;;;9.98;;
2055;SDS011;1033;52.560;13.374;2023-01-09T00:51:45;14.82;;;9.57;;
2055;SDS011;1033;52.560;13.374;2023-01-09T00:54:16;13.65;;;10.05;;
2055;SDS011;1033;52.560;13.374;2023-01-09T00:56:46;14.85;;;10.48;;
2055;SDS011;1033;52.560;13.374;2023-01-09T00:59:18;15.43;;;10.10;;
2055;SDS011;1033;52.560;13.374;2023-01-09T01:01:47;16.65;;;11.63;;
2055;SDS011;1033;52.560;13.374;2023-01-09T01:04:16;15.15;;;10.63;;
2055;SDS011;1033;52.560;13.374;2023-01-09T01:07:03;18.02;;;10.50;;
2055;SDS011;1033;52.560;13.374;2023-01-09T01:09:49;17.15;;;12.60;;
2055;SDS011;1033;52.560;13.374;2023-01-09T01:12:18;16.40;;;12.57;;
2055;SDS011;1033;52.560;13.374;2023-01-09T01:14:48;14.95;;;11.43;;
2055;SDS011;1033;52.560;13.374;2023-01-09T01:17:19;17.42;;;12.65;;
2055;SDS011;1033;52.560;13.374;2023-01-09T01:19:52;15.05;;;10.10;;
2055;SDS011;1033;52.560;13.374;2023-01-09T01:22:21;17.05;;;10.20;;
2055;SDS011;1033;52.560;13.374;2023-01-09T01:24:50;15.85;;;10.65;;
2055;SDS011;1033;52.560;13.374;2023-01-09T01:27:19;14.70;;;11.30;;
2055;SDS011;1033;52.560;13.374;2023-01-09T01:29:50;16.10;;;10.77;;
2055;SDS011;1033;52.560;13.374;2023-01-09T01:32:19;17.20;;;12.75;;
2055;SDS011;1033;52.560;13.374;2023-01-09T01:34:48;13.95;;;11.15;;
2055;SDS011;1033;52.560;13.374;2023-01-09T01:37:17;19.55;;;11.00;;
2055;SDS011;1033;52.560;13.374;2023-01-09T01:39:47;17.10;;;12.02;;
2055;SDS011;1033;52.560;13.374;2023-01-09T01:42:18;18.52;;;12.68;;
2055;SDS011;1033;52.560;13.374;2023-01-09T01:44:56;15.05;;;10.52;;
2055;SDS011;1033;52.560;13.374;2023-01-09T01:47:30;16.58;;;12.50;;
2055;SDS011;1033;52.560;13.374;2023-01-09T01:50:04;19.40;;;10.93;;
2055;SDS011;1033;52.560;13.374;2023-01-09T01:52:39;16.02;;;11.55;;
2055;SDS011;1033;52.560;13.374;2023-01-09T01:55:14;18.52;;;11.50;;
2055;SDS011;1033;52.560;13.374;2023-01-09T01:57:45;16.42;;;12.00;;
2055;SDS011;1033;52.560;13.374;2023-01-09T02:00:17;16.98;;;11.65;;
2055;SDS011;1033;52.560;13.374;2023-01-09T02:02:51;20.50;;;13.55;;
2055;SDS011;1033;52.560;13.374;2023-01-09T02:08:52;14.25;;;11.13;;
2055;SDS011;1033;52.560;13.374;2023-01-09T02:11:22;15.50;;;12.30;;
2055;SDS011;1033;52.560;13.374;2023-01-09T02:13:51;14.75;;;10.10;;
2055;SDS011;1033;52.560;13.374;2023-01-09T02:16:26;15.75;;;11.55;;
2055;SDS011;1033;52.560;13.374;2023-01-09T02:19:05;16.63;;;11.85;;
2055;SDS011;1033;52.560;13.374;2023-01-09T02:21:49;15.85;;;11.52;;
2055;SDS011;1033;52.560;13.374;2023-01-09T02:24:28;17.30;;;12.88;;
2055;SDS011;1033;52.560;13.374;2023-01-09T02:27:29;14.50;;;12.93;;
2055;SDS011;1033;52.560;13.374;2023-01-09T02:30:27;16.77;;;11.25;;
2055;SDS011;1033;52.560;13.374;2023-01-09T02:33:03;17.50;;;12.23;;
2055;SDS011;1033;52.560;13.374;2023-01-09T02:35:42;16.60;;;13.85;;
2055;SDS011;1033;52.560;13.374;2023-01-09T02:38:29;19.95;;;12.98;;
2055;SDS011;1033;52.560;13.374;2023-01-09T02:41:07;14.75;;;12.38;;
2055;SDS011;1033;52.560;13.374;2023-01-09T02:43:43;19.17;;;13.27;;
2055;SDS011;1033;52.560;13.374;2023-01-09T02:46:18;21.73;;;12.30;;
2055;SDS011;1033;52.560;13.374;2023-01-09T02:48:50;18.10;;;13.68;;
2055;SDS011;1033;52.560;13.374;2023-01-09T02:51:22;15.93;;;11.40;;
2055;SDS011;1033;52.560;13.374;2023-01-09T02:54:18;19.95;;;13.38;;
2055;SDS011;1033;52.560;13.374;2023-01-09T02:57:18;17.98;;;13.00;;
2055;SDS011;1033;52.560;13.374;2023-01-09T03:00:08;21.20;;;16.02;;
2055;SDS011;1033;52.560;13.374;2023-01-09T03:02:47;20.02;;;13.60;;
2055;SDS011;1033;52.560;13.374;2023-01-09T03:05:21;20.70;;;13.85;;
2055;SDS011;1033;52.560;13.374;2023-01-09T03:07:58;17.60;;;11.90;;
2055;SDS011;1033;52.560;13.374;2023-01-09T03:10:31;19.35;;;12.82;;
2055;SDS011;1033;52.560;13.374;2023-01-09T03:13:08;19.45;;;13.65;;
2055;SDS011;1033;52.560;13.374;2023-01-09T03:15:41;23.52;;;14.48;;
2055;SDS011;1033;52.560;13.374;2023-01-09T03:18:18;22.38;;;15.50;;
2055;SDS011;1033;52.560;13.374;2023-01-09T03:20:49;18.63;;;13.02;;
2055;SDS011;1033;52.560;13.374;2023-01-09T03:23:21;19.67;;;12.55;;
2055;SDS011;1033;52.560;13.374;2023-01-09T03:25:50;23.30;;;13.45;;
2055;SDS011;1033;52.560;13.374;2023-01-09T03:28:23;17.60;;;13.45;;
2055;SDS011;1033;52.560;13.374;2023-01-09T03:30:54;17.38;;;12.63;;
2055;SDS011;1033;52.560;13.374;2023-01-09T03:33:25;21.70;;;14.20;;
2055;SDS011;1033;52.560;13.374;2023-01-09T03:35:54;15.80;;;11.35;;
2055;SDS011;1033;52.560;13.374;2023-01-09T03:38:23;19.15;;;12.65;;
2055;SDS011;1033;52.560;13.374;2023-01-09T03:40:53;19.25;;;13.50;;
2055;SDS011;1033;52.560;13.374;2023-01-09T03:43:22;16.35;;;13.27;;
2055;SDS011;1033;52.560;13.374;2023-01-09T03:45:51;18.80;;;12.75;;
2055;SDS011;1033;52.560;13.374;2023-01-09T03:48:20;19.05;;;14.30;;
2055;SDS011;1033;52.560;13.374;2023-01-09T03:50:51;18.60;;;13.27;;
2055;SDS011;1033;52.560;13.374;2023-01-09T03:53:25;18.45;;;13.82;;
2055;SDS011;1033;52.560;13.374;2023-01-09T03:55:55;17.13;;;13.05;;
2055;SDS011;1033;52.560;13.374;2023-01-09T03:58:25;17.52;;;12.45;;
2055;SDS011;1033;52.560;13.374;2023-01-09T04:00:56;19.27;;;14.38;;
2055;SDS011;1033;52.560;13.374;2023-01-09T04:03:27;19.38;;;14.65;;
2055;SDS011;1033;52.560;13.374;2023-01-09T04:05:58;19.30;;;13.80;;
2055;SDS011;1033;52.560;13.374;2023-01-09T04:08:27;17.77;;;11.93;;
2055;SDS011;1033;52.560;13.374;2023-01-09T04:10:57;15.07;;;13.20;;
2055;SDS011;1033;52.560;13.374;2023-01-09T04:13:26;16.33;;;12.25;;
2055;SDS011;1033;52.560;13.374;2023-01-09T04:15:55;20.17;;;14.38;;
2055;SDS011;1033;52.560;13.374;2023-01-09T04:18:25;17.42;;;14.50;;
2055;SDS011;1033;52.560;13.374;2023-01-09T04:20:54;17.65;;;12.65;;
2055;SDS011;1033;52.560;13.374;2023-01-09T04:23:25;16.95;;;13.05;;
2055;SDS011;1033;52.560;13.374;2023-01-09T04:25:54;14.95;;;12.63;;
2055;SDS011;1033;52.560;13.374;2023-01-09T04:28:23;18.88;;;13.02;;
2055;SDS011;1033;52.560;13.374;2023-01-09T04:30:53;15.90;;;12.90;;
2055;SDS011;1033;52.560;13.374;2023-01-09T04:33:22;18.92;;;12.55;;
2055;SDS011;1033;52.560;13.374;2023-01-09T04:35:51;16.83;;;12.85;;
2055;SDS011;1033;52.560;13.374;2023-01-09T04:38:21;17.08;;;12.25;;
2055;SDS011;1033;52.560;13.374;2023-01-09T04:40:51;15.77;;;12.00;;
2055;SDS011;1033;52.560;13.374;2023-01-09T04:43:21;17.20;;;12.93;;
2055;SDS011;1033;52.560;13.374;2023-01-09T04:45:50;19.02;;;12.70;;
2055;SDS011;1033;52.560;13.374;2023-01-09T04:48:19;17.90;;;12.40;;
2055;SDS011;1033;52.560;13.374;2023-01-09T04:50:48;16.02;;;11.35;;
2055;SDS011;1033;52.560;13.374;2023-01-09T04:53:18;16.75;;;12.00;;
2055;SDS011;1033;52.560;13.374;2023-01-09T04:55:47;15.90;;;12.82;;
2055;SDS011;1033;52.560;13.374;2023-01-09T04:58:17;14.93;;;13.43;;
2055;SDS011;1033;52.560;13.374;2023-01-09T05:00:47;22.50;;;14.00;;
2055;SDS011;1033;52.560;13.374;2023-01-09T05:03:16;19.10;;;13.68;;
2055;SDS011;1033;52.560;13.374;2023-01-09T05:05:45;14.35;;;10.93;;
2055;SDS011;1033;52.560;13.374;2023-01-09T05:08:14;17.42;;;12.43;;
2055;SDS011;1033;52.560;13.374;2023-01-09T05:10:43;14.82;;;11.77;;
2055;SDS011;1033;52.560;13.374;2023-01-09T05:13:13;17.42;;;13.43;;
2055;SDS011;1033;52.560;13.374;2023-01-09T05:15:43;19.65;;;12.60;;
2055;SDS011;1033;52.560;13.374;2023-01-09T05:18:13;17.77;;;14.23;;
2055;SDS011;1033;52.560;13.374;2023-01-09T05:20:42;25.63;;;14.27;;
2055;SDS011;1033;52.560;13.374;2023-01-09T05:23:11;17.88;;;12.50;;
2055;SDS011;1033;52.560;13.374;2023-01-09T05:25:40;18.67;;;13.18;;
2055;SDS011;1033;52.560;13.374;2023-01-09T05:28:10;15.80;;;12.95;;
2055;SDS011;1033;52.560;13.374;2023-01-09T05:30:39;17.92;;;11.55;;
2055;SDS011;1033;52.560;13.374;2023-01-09T05:33:10;18.30;;;13.70;;
2055;SDS011;1033;52.560;13.374;2023-01-09T05:35:39;16.20;;;12.38;;
2055;SDS011;1033;52.560;13.374;2023-01-09T05:38:08;19.42;;;13.32;;
2055;SDS011;1033;52.560;13.374;2023-01-09T05:40:37;17.58;;;12.65;;
2055;SDS011;1033;52.560;13.374;2023-01-09T05:43:07;16.13;;;12.95;;
2055;SDS011;1033;52.560;13.374;2023-01-09T05:45:36;16.67;;;11.07;;
2055;SDS011;1033;52.560;13.374;2023-01-09T05:48:05;16.88;;;12.07;;
2055;SDS011;1033;52.560;13.374;2023-01-09T05:50:36;17.02;;;12.45;;
2055;SDS011;1033;52.560;13.374;2023-01-09T05:53:05;19.75;;;13.07;;
2055;SDS011;1033;52.560;13.374;2023-01-09T05:55:34;19.52;;;13.77;;
2055;SDS011;1033;52.560;13.374;2023-01-09T05:58:03;20.95;;;14.90;;
2055;SDS011;1033;52.560;13.374;2023-01-09T06:00:33;15.40;;;12.60;;
2055;SDS011;1033;52.560;13.374;2023-01-09T06:03:02;18.23;;;12.68;;
2055;SDS011;1033;52.560;13.374;2023-01-09T06:05:31;16.83;;;12.82;;
2055;SDS011;1033;52.560;13.374;2023-01-09T06:08:02;18.23;;;14.75;;
2055;SDS011;1033;52.560;13.374;2023-01-09T06:10:31;19.42;;;14.40;;
2055;SDS011;1033;52.560;13.374;2023-01-09T06:13:00;14.18;;;12.00;;
2055;SDS011;1033;52.560;13.374;2023-01-09T06:15:30;16.60;;;13.40;;
2055;SDS011;1033;52.560;13.374;2023-01-09T06:17:59;20.23;;;15.00;;
2055;SDS011;1033;52.560;13.374;2023-01-09T06:20:28;21.92;;;14.45;;
2055;SDS011;1033;52.560;13.374;2023-01-09T06:22:57;21.80;;;15.70;;
2055;SDS011;1033;52.560;13.374;2023-01-09T06:25:28;24.02;;;13.48;;
2055;SDS011;1033;52.560;13.374;2023-01-09T06:27:57;20.40;;;14.23;;
2055;SDS011;1033;52.560;13.374;2023-01-09T06:30:26;21.30;;;14.95;;
2055;SDS011;1033;52.560;13.374;2023-01-09T06:32:55;22.58;;;13.60;;
2055;SDS011;1033;52.560;13.374;2023-01-09T06:35:25;19.65;;;14.30;;
2055;SDS011;1033;52.560;13.374;2023-01-09T06:37:54;21.98;;;15.02;;
2055;SDS011;1033;52.560;13.374;2023-01-09T06:40:24;17.67;;;13.50;;
2055;SDS011;1033;52.560;13.374;2023-01-09T06:42:55;23.23;;;13.45;;
2055;SDS011;1033;52.560;13.374;2023-01-09T06:45:24;21.52;;;14.80;;
2055;SDS011;1033;52.560;13.374;2023-01-09T06:47:53;22.55;;;15.90;;
2055;SDS011;1033;52.560;13.374;2023-01-09T06:50:22;21.10;;;14.23;;
2055;SDS011;1033;52.560;13.374;2023-01-09T06:52:51;26.23;;;15.60;;
2055;SDS011;1033;52.560;13.374;2023-01-09T06:55:21;22.13;;;15.75;;
2055;SDS011;1033;52.560;13.374;2023-01-09T06:57:51;21.50;;;15.40;;
2055;SDS011;1033;52.560;13.374;2023-01-09T07:00:22;27.42;;;14.57;;
2055;SDS011;1033;52.560;13.374;2023-01-09T07:02:52;22.60;;;14.65;;
2055;SDS011;1033;52.560;13.374;2023-01-09T07:05:21;19.20;;;13.85;;
2055;SDS011;1033;52.560;13.374;2023-01-09T07:07:51;23.95;;;15.68;;
2055;SDS011;1033;52.560;13.374;2023-01-09T07:10:20;19.25;;;13.15;;
2055;SDS011;1033;52.560;13.374;2023-01-09T07:12:50;25.50;;;14.93;;
2055;SDS011;1033;52.560;13.374;2023-01-09T07:15:19;18.92;;;13.02;;
2055;SDS011;1033;52.560;13.374;2023-01-09T07:17:51;20.98;;;13.07;;
2055;SDS011;1033;52.560;13.374;2023-01-09T07:20:20;21.20;;;14.48;;
2055;SDS011;1033;52.560;13.374;2023-01-09T07:22:50;17.80;;;15.45;;
2055;SDS011;1033;52.560;13.374;2023-01-09T07:25:19;19.20;;;14.55;;
2055;SDS011;1033;52.560;13.374;2023-01-09T07:27:48;20.63;;;14.65;;
2055;SDS011;1033;52.560;13.374;2023-01-09T07:30:17;25.55;;;15.05;;
2055;SDS011;1033;52.560;13.374;2023-01-09T07:32:47;23.98;;;13.77;;
2055;SDS011;1033;52.560;13.374;2023-01-09T07:35:17;23.33;;;12.93;;
2055;SDS011;1033;52.560;13.374;2023-01-09T07:37:46;28.75;;;15.23;;
2055;SDS011;1033;52.560;13.374;2023-01-09T07:40:16;19.13;;;13.63;;
2055;SDS011;1033;52.560;13.374;2023-01-09T07:42:45;19.17;;;13.68;;
2055;SDS011;1033;52.560;13.374;2023-01-09T07:45:14;26.30;;;16.60;;
2055;SDS011;1033;52.560;13.374;2023-01-09T07:47:43;16.33;;;12.63;;
2055;SDS011;1033;52.560;13.374;2023-01-09T07:50:13;21.05;;;14.95;;
2055;SDS011;1033;52.560;13.374;2023-01-09T07:52:44;17.33;;;13.80;;
2055;SDS011;1033;52.560;13.374;2023-01-09T07:55:13;17.27;;;13.13;;
2055;SDS011;1033;52.560;13.374;2023-01-09T07:57:46;20.95;;;16.10;;
2055;SDS011;1033;52.560;13.374;2023-01-09T08:00:16;23.50;;;15.55;;
2055;SDS011;1033;52.560;13.374;2023-01-09T08:02:50;24.95;;;16.35;;
2055;SDS011;1033;52.560;13.374;2023-01-09T08:05:20;20.23;;;15.00;;
2055;SDS011;1033;52.560;13.374;2023-01-09T08:07:50;17.35;;;12.95;;
2055;SDS011;1033;52.560;13.374;2023-01-09T08:10:20;22.75;;;15.95;;
2055;SDS011;1033;52.560;13.374;2023-01-09T08:12:49;23.05;;;15.38;;
2055;SDS011;1033;52.560;13.374;2023-01-09T08:15:18;18.17;;;13.82;;
2055;SDS011;1033;52.560;13.374;2023-01-09T08:17:48;21.90;;;15.00;;
2055;SDS011;1033;52.560;13.374;2023-01-09T08:20:17;23.55;;;15.13;;
2055;SDS011;1033;52.560;13.374;2023-01-09T08:22:47;23.08;;;14.02;;
2055;SDS011;1033;52.560;13.374;2023-01-09T08:25:17;22.45;;;14.77;;
2055;SDS011;1033;52.560;13.374;2023-01-09T08:27:46;22.88;;;15.00;;
2055;SDS011;1033;52.560;13.374;2023-01-09T08:30:16;18.27;;;13.25;;
2055;SDS011;1033;52.560;13.374;2023-01-09T08:32:49;19.63;;;13.23;;
2055;SDS011;1033;52.560;13.374;2023-01-09T08:35:20;19.40;;;14.98;;
2055;SDS011;1033;52.560;13.374;2023-01-09T08:37:49;21.70;;;14.55;;
2055;SDS011;1033;52.560;13.374;2023-01-09T08:40:20;23.65;;;16.25;;
2055;SDS011;1033;52.560;13.374;2023-01-09T08:42:49;20.88;;;13.70;;
2055;SDS011;1033;52.560;13.374;2023-01-09T08:45:36;22.42;;;14.98;;
2055;SDS011;1033;52.560;13.374;2023-01-09T08:48:23;20.35;;;14.05;;
2055;SDS011;1033;52.560;13.374;2023-01-09T08:50:52;22.77;;;16.52;;
2055;SDS011;1033;52.560;13.374;2023-01-09T08:53:21;21.05;;;13.23;;
2055;SDS011;1033;52.560;13.374;2023-01-09T08:55:52;18.80;;;13.25;;
2055;SDS011;1033;52.560;13.374;2023-01-09T08:58:21;19.70;;;13.63;;
2055;SDS011;1033;52.560;13.374;2023-01-09T09:00:50;21.38;;;13.63;;
2055;SDS011;1033;52.560;13.374;2023-01-09T09:03:20;19.33;;;14.75;;
2055;SDS011;1033;52.560;13.374;2023-01-09T09:05:49;19.52;;;14.18;;
2055;SDS011;1033;52.560;13.374;2023-01-09T09:08:18;21.98;;;14.85;;
2055;SDS011;1033;52.560;13.374;2023-01-09T09:10:47;20.25;;;14.25;;
2055;SDS011;1033;52.560;13.374;2023-01-09T09:13:18;19.85;;;13.18;;
2055;SDS011;1033;52.560;13.374;2023-01-09T09:15:47;22.13;;;13.32;;
2055;SDS011;1033;52.560;13.374;2023-01-09T09:18:16;21.98;;;13.50;;
2055;SDS011;1033;52.560;13.374;2023-01-09T09:20:46;18.92;;;11.70;;
2055;SDS011;1033;52.560;13.374;2023-01-09T09:23:15;26.50;;;14.00;;
2055;SDS011;1033;52.560;13.374;2023-01-09T09:25:45;19.02;;;13.07;;
2055;SDS011;1033;52.560;13.374;2023-01-09T09:28:14;16.63;;;11.93;;
2055;SDS011;1033;52.560;13.374;2023-01-09T09:30:45;18.85;;;13.18;;
2055;SDS011;1033;52.560;13.374;2023-01-09T09:33:14;19.33;;;13.38;;
2055;SDS011;1033;52.560;13.374;2023-01-09T09:35:43;16.45;;;13.32;;
2055;SDS011;1033;52.560;13.374;2023-01-09T09:38:13;23.48;;;13.82;;
2055;SDS011;1033;52.560;13.374;2023-01-09T09:40:48;18.35;;;12.65;;
2055;SDS011;1033;52.560;13.374;2023-01-09T09:43:38;19.38;;;13.43;;
2055;SDS011;1033;52.560;13.374;2023-01-09T09:46:45;20.35;;;13.40;;
2055;SDS011;1033;52.560;13.374;2023-01-09T09:49:22;18.95;;;11.55;;
2055;SDS011;1033;52.560;13.374;2023-01-09T09:51:55;25.00;;;14.10;;
2055;SDS011;1033;52.560;13.374;2023-01-09T09:54:32;20.05;;;11.57;;
2055;SDS011;1033;52.560;13.374;2023-01-09T09:57:05;21.20;;;13.45;;
2055;SDS011;1033;52.560;13.374;2023-01-09T09:59:42;18.20;;;12.80;;
2055;SDS011;1033;52.560;13.374;2023-01-09T10:02:20;16.92;;;12.70;;
2055;SDS011;1033;52.560;13.374;2023-01-09T10:04:56;20.05;;;13.40;;
2055;SDS011;1033;52.560;13.374;2023-01-09T10:07:32;20.45;;;14.80;;
2055;SDS011;1033;52.560;13.374;2023-01-09T10:10:09;22.67;;;13.73;;
2055;SDS011;1033;52.560;13.374;2023-01-09T10:12:49;14.73;;;11.45;;
2055;SDS011;1033;52.560;13.374;2023-01-09T10:15:24;16.73;;;11.73;;
2055;SDS011;1033;52.560;13.374;2023-01-09T10:18:08;18.00;;;12.75;;
2055;SDS011;1033;52.560;13.374;2023-01-09T10:20:49;15.32;;;11.98;;
2055;SDS011;1033;52.560;13.374;2023-01-09T10:23:31;19.17;;;13.65;;
2055;SDS011;1033;52.560;13.374;2023-01-09T10:26:18;11.60;;;10.23;;
2055;SDS011;1033;52.560;13.374;2023-01-09T10:31:59;12.88;;;9.15;;
2055;SDS011;1033;52.560;13.374;2023-01-09T10:34:42;14.95;;;11.02;;
2055;SDS011;1033;52.560;13.374;2023-01-09T10:37:22;14.30;;;9.60;;
2055;SDS011;1033;52.560;13.374;2023-01-09T10:39:56;14.10;;;10.45;;
2055;SDS011;1033;52.560;13.374;2023-01-09T10:42:31;11.88;;;9.43;;
2055;SDS011;1033;52.560;13.374;2023-01-09T10:45:04;12.40;;;10.05;;
2055;SDS011;1033;52.560;13.374;2023-01-09T10:47:43;13.00;;;9.38;;
2055;SDS011;1033;52.560;13.374;2023-01-09T10:50:17;11.80;;;9.35;;
2055;SDS011;1033;52.560;13.374;2023-01-09T10:52:48;14.40;;;10.98;;
2055;SDS011;1033;52.560;13.374;2023-01-09T10:55:21;12.68;;;8.90;;
2055;SDS011;1033;52.560;13.374;2023-01-09T10:57:58;11.65;;;9.65;;
2055;SDS011;1033;52.560;13.374;2023-01-09T11:00:29;8.30;;;7.47;;
2055;SDS011;1033;52.560;13.374;2023-01-09T11:02:58;8.57;;;6.55;;
2055;SDS011;1033;52.560;13.374;2023-01-09T11:05:29;12.73;;;8.18;;
2055;SDS011;1033;52.560;13.374;2023-01-09T11:08:00;11.90;;;9.18;;
2055;SDS011;1033;52.560;13.374;2023-01-09T11:10:45;10.77;;;7.70;;
2055;SDS011;1033;52.560;13.374;2023-01-09T11:13:17;10.05;;;7.65;;
2055;SDS011;1033;52.560;13.374;2023-01-09T11:15:58;11.98;;;7.63;;
2055;SDS011;1033;52.560;13.374;2023-01-09T11:18:30;9.50;;;7.90;;
2055;SDS011;1033;52.560;13.374;2023-01-09T11:23:55;7.25;;;6.25;;
2055;SDS011;1033;52.560;13.374;2023-01-09T11:26:43;8.48;;;5.55;;
2055;SDS011;1033;52.560;13.374;2023-01-09T11:29:15;9.95;;;6.72;;
2055;SDS011;1033;52.560;13.374;2023-01-09T11:31:49;6.80;;;6.00;;
2055;SDS011;1033;52.560;13.374;2023-01-09T11:34:20;8.35;;;6.60;;
2055;SDS011;1033;52.560;13.374;2023-01-09T11:36:53;14.00;;;8.77;;
2055;SDS011;1033;52.560;13.374;2023-01-09T11:39:31;7.63;;;5.75;;
2055;SDS011;1033;52.560;13.374;2023-01-09T11:42:04;7.57;;;6.50;;
2055;SDS011;1033;52.560;13.374;2023-01-09T11:44:36;10.50;;;6.10;;
2055;SDS011;1033;52.560;13.374;2023-01-09T11:47:07;9.93;;;6.40;;
2055;SDS011;1033;52.560;13.374;2023-01-09T11:49:56;6.78;;;5.15;;
2055;SDS011;1033;52.560;13.374;2023-01-09T11:52:44;5.68;;;4.68;;
2055;SDS011;1033;52.560;13.374;2023-01-09T11:55:34;5.45;;;4.80;;
2055;SDS011;1033;52.560;13.374;2023-01-09T11:58:10;6.38;;;4.47;;
2055;SDS011;1033;52.560;13.374;2023-01-09T12:00:44;4.53;;;4.10;;
2055;SDS011;1033;52.560;13.374;2023-01-09T12:03:23;6.10;;;4.43;;
2055;SDS011;1033;52.560;13.374;2023-01-09T12:09:08;7.82;;;4.35;;
2055;SDS011;1033;52.560;13.374;2023-01-09T12:11:45;6.90;;;4.23;;
2055;SDS011;1033;52.560;13.374;2023-01-09T12:14:23;5.40;;;4.70;;
2055;SDS011;1033;52.560;13.374;2023-01-09T12:17:08;5.45;;;4.47;;
2055;SDS011;1033;52.560;13.374;2023-01-09T12:19:55;7.05;;;5.07;;
2055;SDS011;1033;52.560;13.374;2023-01-09T12:22:37;4.35;;;3.78;;
2055;SDS011;1033;52.560;13.374;2023-01-09T12:25:22;8.00;;;4.30;;
2055;SDS011;1033;52.560;13.374;2023-01-09T12:28:06;5.10;;;3.77;;
2055;SDS011;1033;52.560;13.374;2023-01-09T12:30:57;4.10;;;3.20;;
2055;SDS011;1033;52.560;13.374;2023-01-09T12:33:41;6.68;;;3.72;;
2055;SDS011;1033;52.560;13.374;2023-01-09T12:36:21;10.73;;;4.53;;
2055;SDS011;1033;52.560;13.374;2023-01-09T12:39:00;4.07;;;3.05;;
2055;SDS011;1033;52.560;13.374;2023-01-09T12:41:49;4.50;;;3.50;;
2055;SDS011;1033;52.560;13.374;2023-01-09T12:44:49;5.75;;;2.55;;
2055;SDS011;1033;52.560;13.374;2023-01-09T12:50:29;11.48;;;3.75;;
2055;SDS011;1033;52.560;13.374;2023-01-09T12:53:14;5.47;;;3.63;;
2055;SDS011;1033;52.560;13.374;2023-01-09T12:55:49;5.35;;;3.55;;
2055;SDS011;1033;52.560;13.374;2023-01-09T12:58:28;4.43;;;4.00;;
2055;SDS011;1033;52.560;13.374;2023-01-09T13:04:08;7.05;;;3.80;;
2055;SDS011;1033;52.560;13.374;2023-01-09T13:06:43;5.10;;;4.00;;
2055;SDS011;1033;52.560;13.374;2023-01-09T13:09:20;6.43;;;2.90;;
2055;SDS011;1033;52.560;13.374;2023-01-09T13:11:56;7.90;;;3.50;;
2055;SDS011;1033;52.560;13.374;2023-01-09T13:14:36;5.97;;;3.85;;
2055;SDS011;1033;52.560;13.374;2023-01-09T13:17:13;3.40;;;3.08;;
2055;SDS011;1033;52.560;13.374;2023-01-09T13:19:48;5.57;;;3.30;;
2055;SDS011;1033;52.560;13.374;2023-01-09T13:22:19;3.60;;;3.30;;
2055;SDS011;1033;52.560;13.374;2023-01-09T13:24:59;7.80;;;3.95;;
2055;SDS011;1033;52.560;13.374;2023-01-09T13:27:48;6.93;;;4.25;;
2055;SDS011;1033;52.560;13.374;2023-01-09T13:30:30;4.25;;;3.25;;
2055;SDS011;1033;52.560;13.374;2023-01-09T13:33:19;6.10;;;2.92;;
2055;SDS011;1033;52.560;13.374;2023-01-09T13:35:54;7.90;;;3.10;;
2055;SDS011;1033;52.560;13.374;2023-01-09T13:38:26;5.93;;;3.72;;
2055;SDS011;1033;52.560;13.374;2023-01-09T13:41:01;5.03;;;2.80;;
2055;SDS011;1033;52.560;13.374;2023-01-09T13:44:18;7.47;;;3.22;;
2055;SDS011;1033;52.560;13.374;2023-01-09T13:46:53;5.03;;;3.45;;
2055;SDS011;1033;52.560;13.374;2023-01-09T13:49:28;5.13;;;2.83;;
2055;SDS011;1033;52.560;13.374;2023-01-09T13:51:59;6.45;;;4.32;;
2055;SDS011;1033;52.560;13.374;2023-01-09T13:57:30;6.40;;;3.50;;
2055;SDS011;1033;52.560;13.374;2023-01-09T14:03:11;4.53;;;2.83;;
2055;SDS011;1033;52.560;13.374;2023-01-09T14:06:07;4.85;;;4.22;;
2055;SDS011;1033;52.560;13.374;2023-01-09T14:08:44;6.45;;;3.15;;
2055;SDS011;1033;52.560;13.374;2023-01-09T14:11:19;5.22;;;3.13;;
2055;SDS011;1033;52.560;13.374;2023-01-09T14:14:05;4.03;;;2.78;;
2055;SDS011;1033;52.560;13.374;2023-01-09T14:16:54;6.32;;;3.45;;
2055;SDS011;1033;52.560;13.374;2023-01-09T14:19:33;10.77;;;3.22;;
2055;SDS011;1033;52.560;13.374;2023-01-09T14:22:04;5.22;;;2.53;;
2055;SDS011;1033;52.560;13.374;2023-01-09T14:24:38;5.68;;;2.88;;
2055;SDS011;1033;52.560;13.374;2023-01-09T14:30:15;3.65;;;3.15;;
2055;SDS011;1033;52.560;13.374;2023-01-09T14:32:55;5.28;;;3.80;;
2055;SDS011;1033;52.560;13.374;2023-01-09T14:35:31;4.80;;;2.70;;
2055;SDS011;1033;52.560;13.374;2023-01-09T14:38:13;6.35;;;2.47;;
2055;SDS011;1033;52.560;13.374;2023-01-09T14:40:55;3.40;;;2.65;;
2055;SDS011;1033;52.560;13.374;2023-01-09T14:43:37;6.00;;;2.80;;
2055;SDS011;1033;52.560;13.374;2023-01-09T14:46:15;4.25;;;2.67;;
2055;SDS011;1033;52.560;13.374;2023-01-09T14:48:56;4.15;;;2.80;;
2055;SDS011;1033;52.560;13.374;2023-01-09T14:51:36;5.78;;;2.65;;
2055;SDS011;1033;52.560;13.374;2023-01-09T14:54:13;7.28;;;2.40;;
2055;SDS011;1033;52.560;13.374;2023-01-09T14:56:54;4.50;;;2.40;;
2055;SDS011;1033;52.560;13.374;2023-01-09T14:59:23;7.65;;;3.33;;
2055;SDS011;1033;52.560;13.374;2023-01-09T15:01:53;3.58;;;2.47;;
2055;SDS011;1033;52.560;13.374;2023-01-09T15:04:29;6.13;;;4.43;;
2055;SDS011;1033;52.560;13.374;2023-01-09T15:07:03;4.13;;;2.28;;
2055;SDS011;1033;52.560;13.374;2023-01-09T15:09:35;4.15;;;2.65;;
2055;SDS011;1033;52.560;13.374;2023-01-09T15:12:12;4.95;;;3.00;;
2055;SDS011;1033;52.560;13.374;2023-01-09T15:14:48;5.57;;;3.17;;
2055;SDS011;1033;52.560;13.374;2023-01-09T15:17:21;8.57;;;3.75;;
2055;SDS011;1033;52.560;13.374;2023-01-09T15:19:51;4.13;;;2.40;;
2055;SDS011;1033;52.560;13.374;2023-01-09T15:22:26;4.47;;;3.08;;
2055;SDS011;1033;52.560;13.374;2023-01-09T15:25:11;3.60;;;2.50;;
2055;SDS011;1033;52.560;13.374;2023-01-09T15:28:18;3.97;;;3.17;;
2055;SDS011;1033;52.560;13.374;2023-01-09T15:30:52;6.45;;;3.28;;
2055;SDS011;1033;52.560;13.374;2023-01-09T15:33:29;5.85;;;3.55;;
2055;SDS011;1033;52.560;13.374;2023-01-09T15:36:06;9.20;;;2.97;;
2055;SDS011;1033;52.560;13.374;2023-01-09T15:38:44;3.50;;;2.83;;
2055;SDS011;1033;52.560;13.374;2023-01-09T15:41:14;8.68;;;2.95;;
2055;SDS011;1033;52.560;13.374;2023-01-09T15:44:06;4.80;;;2.63;;
2055;SDS011;1033;52.560;13.374;2023-01-09T15:46:41;6.43;;;3.90;;
2055;SDS011;1033;52.560;13.374;2023-01-09T15:49:12;8.90;;;4.18;;
2055;SDS011;1033;52.560;13.374;2023-01-09T15:51:42;6.65;;;3.97;;